Time;durP1;ratioP1;P1;durP2;ratioP2;P2;SDS_P1;SDS_P2;PMS_P1;PMS_P2;Temp;Humidity;BMP_temperature;BMP_pressure;BME280_temperature;BME280_humidity;BME280_pressure;Samples;Min_cycle;Max_cycle;Signal;HPM_P1;HPM_P2
2023/02/07 00:01:51;;;;;;;3.75;2.92;;;;;;;-1.15;59.73;97459.09;5071861;28;20103;-68
2023/02/07 00:04:16;;;;;;;5.43;3.35;;;;;;;-1.40;57.18;97448.72;5064988;28;20091;-68
2023/02/07 00:06:42;;;;;;;3.95;3.20;;;;;;;-1.37;57.10;97452.09;5067097;28;20084;-68
2023/02/07 00:09:07;;;;;;;3.60;2.78;;;;;;;-1.39;55.48;97453.88;5069023;28;20090;-68
2023/02/07 00:11:34;;;;;;;3.85;2.70;;;;;;;-1.46;57.52;97452.41;5065962;28;20068;-68
2023/02/07 00:13:59;;;;;;;4.43;2.90;;;;;;;-1.46;56.70;97455.88;5069615;28;20570;-68
2023/02/07 00:16:25;;;;;;;5.78;2.97;;;;;;;-1.70;57.08;97452.41;5069102;28;20082;-68
2023/02/07 00:18:51;;;;;;;2.83;2.50;;;;;;;-1.54;52.39;97447.47;5067272;28;20063;-68
2023/02/07 00:21:18;;;;;;;4.18;2.83;;;;;;;-1.53;58.64;97443.13;5069042;28;20092;-68
2023/02/07 00:23:43;;;;;;;5.57;2.70;;;;;;;-1.71;51.37;97445.50;5067904;28;20066;-68
2023/02/07 00:26:09;;;;;;;3.58;2.80;;;;;;;-1.85;50.59;97452.06;5066626;28;20057;-68
2023/02/07 00:28:34;;;;;;;3.50;2.40;;;;;;;-2.02;51.34;97449.19;5070607;28;20125;-68
2023/02/07 00:31:20;;;;;;;4.47;2.63;;;;;;;-1.98;52.75;97451.66;5066818;28;20074;-68
2023/02/07 00:33:46;;;;;;;3.67;2.53;;;;;;;-2.30;55.63;97456.22;5067170;28;20590;-68
2023/02/07 00:36:14;;;;;;;3.13;2.40;;;;;;;-2.33;52.73;97458.06;5069682;28;20100;-68
2023/02/07 00:38:39;;;;;;;3.38;2.60;;;;;;;-2.30;54.36;97451.00;5066738;28;20153;-68
2023/02/07 00:41:05;;;;;;;3.60;2.50;;;;;;;-1.96;59.52;97461.19;5066998;28;20204;-68
2023/02/07 00:43:30;;;;;;;2.88;2.47;;;;;;;-2.00;53.81;97463.06;5069001;28;20069;-68
2023/02/07 00:45:58;;;;;;;2.80;2.40;;;;;;;-2.07;52.88;97457.16;5065300;28;20183;-68
2023/02/07 00:48:24;;;;;;;4.07;2.70;;;;;;;-1.75;58.29;97455.22;5064615;28;20087;-68
2023/02/07 00:50:49;;;;;;;3.63;2.70;;;;;;;-1.45;58.49;97443.69;5070856;28;20129;-68
2023/02/07 00:53:14;;;;;;;3.13;2.45;;;;;;;-1.44;56.05;97439.28;5069955;28;20402;-68
2023/02/07 00:55:40;;;;;;;2.75;2.40;;;;;;;-1.41;57.36;97444.41;5072163;28;20113;-68
2023/02/07 00:58:05;;;;;;;3.92;2.60;;;;;;;-1.18;57.50;97442.69;5071817;28;20520;-68
2023/02/07 01:00:31;;;;;;;4.15;2.63;;;;;;;-1.27;54.59;97444.75;5074184;28;20080;-68
2023/02/07 01:02:56;;;;;;;2.47;2.03;;;;;;;-1.23;53.34;97429.78;5071350;28;20077;-68
2023/02/07 01:05:22;;;;;;;3.50;2.28;;;;;;;-1.17;49.17;97428.69;5070939;28;20094;-68
2023/02/07 01:07:47;;;;;;;2.30;2.10;;;;;;;-1.49;53.21;97429.03;5070681;28;20128;-68
2023/02/07 01:10:13;;;;;;;2.00;1.73;;;;;;;-1.73;49.61;97432.47;5069996;28;20317;-68
2023/02/07 01:12:38;;;;;;;2.28;1.90;;;;;;;-1.83;51.42;97441.56;5070735;28;20797;-68
2023/02/07 01:15:06;;;;;;;2.55;2.00;;;;;;;-2.12;49.42;97431.25;5069576;28;20071;-68
2023/02/07 01:17:31;;;;;;;2.92;1.80;;;;;;;-2.14;52.92;97442.66;5071915;28;20162;-68
2023/02/07 01:20:00;;;;;;;2.00;1.80;;;;;;;-2.24;49.24;97444.72;5071241;28;20078;-68
2023/02/07 01:22:26;;;;;;;2.20;2.00;;;;;;;-2.29;53.63;97447.50;5074128;28;20066;-68
2023/02/07 01:24:52;;;;;;;2.63;2.00;;;;;;;-2.30;54.51;97448.41;5068143;28;20100;-68
2023/02/07 01:27:17;;;;;;;1.83;1.73;;;;;;;-2.42;56.39;97444.44;5073283;28;20081;-68
2023/02/07 01:29:43;;;;;;;2.22;2.00;;;;;;;-2.53;54.62;97430.91;5070297;28;20097;-68
2023/02/07 01:32:09;;;;;;;2.25;2.05;;;;;;;-2.48;57.20;97435.97;5069783;28;20084;-68
2023/02/07 01:34:34;;;;;;;3.00;2.20;;;;;;;-2.73;53.61;97437.63;5072519;28;20070;-68
2023/02/07 01:37:00;;;;;;;2.33;2.10;;;;;;;-2.69;55.70;97428.78;5074261;28;20092;-68
2023/02/07 01:39:25;;;;;;;2.33;2.00;;;;;;;-2.93;56.21;97431.28;5076644;28;20089;-68
2023/02/07 01:41:50;;;;;;;2.38;2.17;;;;;;;-3.10;54.02;97431.81;5072118;28;20102;-68
2023/02/07 01:44:22;;;;;;;2.72;2.08;;;;;;;-2.71;58.32;97421.94;5071595;28;20102;-68
2023/02/07 01:46:48;;;;;;;2.80;2.10;;;;;;;-2.94;56.39;97421.78;5069885;28;20075;-68
2023/02/07 01:49:13;;;;;;;2.30;2.10;;;;;;;-2.96;58.00;97433.16;5075352;28;21160;-68
2023/02/07 01:51:41;;;;;;;2.25;2.05;;;;;;;-2.91;54.41;97436.47;5054530;28;20577;-68
2023/02/07 01:54:07;;;;;;;4.63;2.50;;;;;;;-2.80;55.65;97421.31;5057179;28;20097;-68
2023/02/07 01:56:33;;;;;;;2.85;2.08;;;;;;;-2.86;57.04;97434.53;5067665;28;20501;-68
2023/02/07 01:59:00;;;;;;;3.38;1.70;;;;;;;-3.09;55.21;97430.06;5067942;28;20125;-68
2023/02/07 02:01:25;;;;;;;2.30;2.10;;;;;;;-2.75;57.57;97422.03;5067423;28;20786;-69
2023/02/07 02:03:53;;;;;;;2.47;2.08;;;;;;;-2.70;57.73;97419.28;5067178;28;20279;-69
2023/02/07 02:06:19;;;;;;;1.90;1.80;;;;;;;-2.90;55.46;97427.72;5064612;28;20571;-69
2023/02/07 02:08:44;;;;;;;2.25;2.08;;;;;;;-2.70;59.15;97426.22;5048819;28;20083;-69
2023/02/07 02:11:33;;;;;;;2.28;2.08;;;;;;;-2.65;56.31;97424.34;5070183;28;20124;-69
2023/02/07 02:13:58;;;;;;;2.53;2.00;;;;;;;-2.72;56.88;97430.66;5065124;28;20870;-69
2023/02/07 02:16:47;;;;;;;2.27;2.07;;;;;;;-2.52;59.98;97427.38;5066692;28;20217;-69
2023/02/07 02:19:42;;;;;;;2.10;1.90;;;;;;;-2.78;57.78;97423.88;5056626;28;20420;-69
2023/02/07 02:22:27;;;;;;;2.50;2.30;;;;;;;-2.81;58.73;97417.03;5067838;28;20128;-69
2023/02/07 02:24:55;;;;;;;2.25;2.08;;;;;;;-2.67;60.04;97424.41;5065886;28;20086;-69
2023/02/07 02:27:28;;;;;;;2.30;2.10;;;;;;;-2.25;60.99;97419.50;5066875;28;20088;-69
2023/02/07 02:30:08;;;;;;;2.20;2.00;;;;;;;-2.59;56.63;97418.03;5066077;28;20366;-69
2023/02/07 02:32:58;;;;;;;2.47;2.20;;;;;;;-2.29;58.80;97418.78;5050448;28;20567;-68
2023/02/07 02:35:28;;;;;;;2.45;2.15;;;;;;;-2.56;55.52;97424.03;5068066;28;20121;-69
2023/02/07 02:37:58;;;;;;;2.50;2.08;;;;;;;-2.38;60.04;97424.28;5066398;28;20113;-69
2023/02/07 02:40:28;;;;;;;;;;;;;;;-1.90;58.70;97419.19;5055600;28;20117;-69
2023/02/07 02:43:03;;;;;;;2.25;2.05;;;;;;;-1.61;60.40;97418.13;5062258;28;19959;-69
2023/02/07 02:45:37;;;;;;;2.30;2.08;;;;;;;-1.70;57.00;97418.44;5060881;28;20109;-69
2023/02/07 02:48:04;;;;;;;3.30;2.10;;;;;;;-1.80;59.16;97402.28;5044418;28;20155;-69
2023/02/07 02:50:29;;;;;;;2.40;1.90;;;;;;;-1.59;57.18;97400.63;5049932;28;20158;-69
2023/02/07 02:52:55;;;;;;;2.10;1.90;;;;;;;-1.51;56.46;97400.34;5064365;28;20096;-68
2023/02/07 02:55:28;;;;;;;1.70;1.60;;;;;;;-1.89;53.10;97397.41;5068029;28;20079;-68
2023/02/07 02:58:14;;;;;;;2.88;2.10;;;;;;;-1.52;56.62;97403.84;5063188;28;20524;-68
2023/02/07 03:01:04;;;;;;;2.20;2.00;;;;;;;-1.24;57.70;97400.19;5067315;28;20271;-68
2023/02/07 03:04:12;;;;;;;2.08;1.88;;;;;;;-1.12;57.96;97405.88;5079359;28;20062;-68
2023/02/07 03:06:57;;;;;;;2.55;2.20;;;;;;;-1.12;55.59;97401.47;5046431;28;20362;-69
2023/02/07 03:09:41;;;;;;;2.20;2.00;;;;;;;-1.28;53.73;97401.22;5068043;28;20367;-69
2023/02/07 03:12:27;;;;;;;2.30;2.10;;;;;;;-1.09;56.15;97390.03;5075070;28;20114;-69
2023/02/07 03:15:05;;;;;;;2.83;2.00;;;;;;;-1.54;55.61;97394.38;5066807;28;20506;-69
2023/02/07 03:17:42;;;;;;;2.70;1.98;;;;;;;-1.50;58.31;97388.97;5062782;28;20762;-69
2023/02/07 03:20:32;;;;;;;2.42;2.22;;;;;;;-1.99;56.26;97384.69;5060950;28;20447;-68
2023/02/07 03:22:57;;;;;;;1.98;1.88;;;;;;;-1.80;56.22;97397.03;5054373;28;20086;-69
2023/02/07 03:25:23;;;;;;;2.50;2.30;;;;;;;-1.69;57.26;97383.63;5066318;28;20751;-69
2023/02/07 03:27:48;;;;;;;2.38;2.10;;;;;;;-1.77;57.55;97380.41;5049284;28;20134;-69
2023/02/07 03:30:15;;;;;;;2.45;2.25;;;;;;;-1.90;57.60;97377.41;5066946;28;20547;-69
2023/02/07 03:32:47;;;;;;;2.30;2.00;;;;;;;-2.02;54.93;97379.56;5051083;28;20084;-69
2023/02/07 03:35:16;;;;;;;2.55;2.10;;;;;;;-2.02;58.39;97383.94;5066588;28;20108;-69
2023/02/07 03:37:43;;;;;;;2.20;2.00;;;;;;;-1.86;59.95;97382.44;5068072;28;20394;-69
2023/02/07 03:40:09;;;;;;;2.25;2.05;;;;;;;-1.93;60.39;97382.75;5066773;28;20090;-69
2023/02/07 03:42:59;;;;;;;2.47;2.03;;;;;;;-2.01;60.27;97383.88;5066320;28;20085;-69
2023/02/07 03:45:24;;;;;;;3.20;2.10;;;;;;;-2.09;60.08;97382.44;5065925;28;20137;-69
2023/02/07 03:47:50;;;;;;;2.60;2.20;;;;;;;-2.24;60.30;97369.06;5065546;28;20094;-69
2023/02/07 03:50:16;;;;;;;2.42;2.22;;;;;;;-2.16;61.45;97368.75;5071427;28;20441;-69
2023/02/07 03:52:41;;;;;;;2.45;2.10;;;;;;;-2.08;61.64;97361.50;5069909;28;20150;-69
2023/02/07 03:55:07;;;;;;;2.15;1.95;;;;;;;-2.04;62.04;97368.31;5070308;28;20376;-69
2023/02/07 03:57:32;;;;;;;2.17;1.95;;;;;;;-2.07;61.14;97368.41;5070706;28;20454;-69
2023/02/07 03:59:58;;;;;;;2.95;2.30;;;;;;;-2.10;61.69;97371.16;5069960;28;20181;-69
2023/02/07 04:02:23;;;;;;;2.33;2.13;;;;;;;-2.09;62.29;97372.88;5070631;28;20089;-69
2023/02/07 04:04:49;;;;;;;2.53;2.20;;;;;;;-2.07;62.39;97370.19;5068584;28;20100;-69
2023/02/07 04:07:14;;;;;;;2.45;2.22;;;;;;;-2.29;62.26;97381.38;5065832;28;20287;-69
2023/02/07 04:09:39;;;;;;;2.30;1.90;;;;;;;-2.23;62.19;97370.75;5072059;28;20498;-69
2023/02/07 04:12:05;;;;;;;2.42;2.22;;;;;;;-2.24;61.83;97363.84;5068727;28;20453;-69
2023/02/07 04:14:30;;;;;;;2.35;2.15;;;;;;;-2.21;61.23;97361.09;5070713;28;20059;-69
2023/02/07 04:16:56;;;;;;;2.00;1.90;;;;;;;-2.27;61.12;97369.16;5074145;28;20098;-69
2023/02/07 04:19:21;;;;;;;2.33;2.13;;;;;;;-2.31;62.16;97370.16;5068484;28;20070;-69
2023/02/07 04:21:47;;;;;;;2.30;2.10;;;;;;;-2.40;61.53;97379.16;5073891;28;20101;-69
2023/02/07 04:24:12;;;;;;;2.85;2.25;;;;;;;-2.48;61.89;97371.59;5066169;28;20327;-69
2023/02/07 04:26:38;;;;;;;3.70;2.70;;;;;;;-2.59;61.44;97369.34;5072301;28;20444;-68
2023/02/07 04:29:03;;;;;;;2.67;2.40;;;;;;;-2.60;60.90;97367.66;5069265;28;20204;-68
2023/02/07 04:31:28;;;;;;;3.30;2.35;;;;;;;-2.77;62.29;97361.25;5074222;28;20086;-68
2023/02/07 04:33:54;;;;;;;3.97;2.33;;;;;;;-2.73;62.23;97354.19;5066239;28;20101;-69
2023/02/07 04:36:19;;;;;;;3.78;2.60;;;;;;;-2.70;62.65;97364.50;5072536;28;20100;-69
2023/02/07 04:38:45;;;;;;;3.15;2.60;;;;;;;-2.78;61.86;97367.34;5070027;28;20086;-69
2023/02/07 04:41:10;;;;;;;2.80;2.50;;;;;;;-2.83;60.83;97369.28;5071134;28;20093;-69
2023/02/07 04:43:36;;;;;;;3.33;2.70;;;;;;;-2.76;62.48;97376.00;5068202;28;20075;-69
2023/02/07 04:46:02;;;;;;;3.22;2.50;;;;;;;-2.87;61.57;97365.06;5069026;28;20101;-69
2023/02/07 04:48:27;;;;;;;3.90;2.72;;;;;;;-2.99;62.29;97361.09;5068615;28;20139;-69
2023/02/07 04:50:52;;;;;;;3.33;2.40;;;;;;;-3.01;63.34;97363.78;5068509;28;20081;-69
2023/02/07 04:53:18;;;;;;;2.70;2.40;;;;;;;-3.03;62.31;97357.75;5064298;28;20495;-69
2023/02/07 04:55:47;;;;;;;3.10;2.80;;;;;;;-3.04;61.65;97352.59;5070158;28;20582;-69
2023/02/07 04:58:12;;;;;;;2.85;2.55;;;;;;;-2.89;63.21;97357.28;5068279;28;20063;-69
2023/02/07 05:00:38;;;;;;;3.50;2.47;;;;;;;-2.93;63.59;97365.25;5068349;28;20485;-69
2023/02/07 05:03:03;;;;;;;2.97;2.45;;;;;;;-3.09;62.51;97367.53;5068133;28;20072;-69
2023/02/07 05:05:29;;;;;;;4.07;3.03;;;;;;;-3.30;61.63;97365.53;5070084;28;20100;-69
2023/02/07 05:07:54;;;;;;;3.67;3.00;;;;;;;-3.28;60.12;97358.53;5066290;28;20202;-69
2023/02/07 05:10:19;;;;;;;3.47;2.67;;;;;;;-3.14;62.68;97355.50;5070125;28;20273;-69
2023/02/07 05:12:45;;;;;;;3.03;2.60;;;;;;;-3.27;63.19;97372.41;5074880;28;20088;-68
2023/02/07 05:15:10;;;;;;;3.58;2.85;;;;;;;-3.15;61.88;97364.19;5070458;28;20036;-68
2023/02/07 05:17:37;;;;;;;3.53;2.72;;;;;;;-2.95;62.48;97361.88;5068390;28;20044;-68
2023/02/07 05:20:03;;;;;;;3.65;2.58;;;;;;;-2.86;62.75;97360.72;5069904;28;20539;-68
2023/02/07 05:22:28;;;;;;;3.67;2.83;;;;;;;-2.94;62.24;97358.34;5070488;28;20501;-68
2023/02/07 05:24:54;;;;;;;3.85;3.00;;;;;;;-3.02;63.21;97362.06;5066289;28;20032;-68
2023/02/07 05:27:19;;;;;;;4.30;2.67;;;;;;;-2.85;63.18;97360.63;5067928;28;20032;-68
2023/02/07 05:29:45;;;;;;;4.40;2.92;;;;;;;-2.83;62.97;97364.06;5069041;28;20036;-68
2023/02/07 05:34:58;;;;;;;4.25;3.30;;;;;;;-2.76;60.48;97355.13;5066996;28;20047;-68
2023/02/07 05:37:23;;;;;;;3.42;2.55;;;;;;;-2.77;60.95;97348.22;5070311;28;20269;-68
2023/02/07 05:39:49;;;;;;;3.83;3.15;;;;;;;-2.84;57.42;97358.91;5067371;28;20299;-69
2023/02/07 05:42:14;;;;;;;2.97;2.30;;;;;;;-2.80;62.13;97366.56;5069308;28;20508;-69
2023/02/07 05:44:39;;;;;;;3.50;2.60;;;;;;;-2.82;63.57;97363.16;5069724;28;20217;-69
2023/02/07 05:47:05;;;;;;;3.58;2.75;;;;;;;-2.76;63.62;97378.59;5067954;28;20035;-68
2023/02/07 05:49:30;;;;;;;2.47;2.22;;;;;;;-2.70;63.48;97376.69;5069871;28;20039;-69
2023/02/07 05:51:56;;;;;;;3.97;2.88;;;;;;;-2.66;64.09;97383.50;5070511;28;20031;-69
2023/02/07 05:54:21;;;;;;;4.70;2.92;;;;;;;-2.55;63.78;97380.56;5065327;28;20539;-69
2023/02/07 05:56:47;;;;;;;5.78;2.88;;;;;;;-2.67;63.59;97389.63;5063234;28;20037;-69
2023/02/07 05:59:12;;;;;;;3.20;2.72;;;;;;;-2.64;62.37;97402.56;5069224;28;20036;-69
2023/02/07 06:01:37;;;;;;;4.03;2.88;;;;;;;-2.65;63.20;97399.09;5064930;28;20032;-69
2023/02/07 06:04:03;;;;;;;6.65;5.10;;;;;;;-2.83;58.04;97394.47;5066213;28;20160;-69
2023/02/07 06:06:28;;;;;;;6.28;4.53;;;;;;;-2.82;56.98;97409.25;5064847;28;20035;-68
2023/02/07 06:08:54;;;;;;;7.03;4.70;;;;;;;-2.99;56.59;97402.78;5066926;28;20039;-69
2023/02/07 06:11:19;;;;;;;5.97;4.30;;;;;;;-3.30;58.62;97420.25;5068149;28;20376;-69
2023/02/07 06:13:44;;;;;;;7.32;4.70;;;;;;;-3.18;53.78;97431.19;5071326;28;20039;-69
2023/02/07 06:16:10;;;;;;;5.57;4.20;;;;;;;-3.57;59.31;97427.16;5066643;28;20551;-66
2023/02/07 06:18:36;;;;;;;7.22;4.85;;;;;;;-3.84;52.70;97440.88;5066173;28;20205;-68
2023/02/07 06:21:02;;;;;;;7.28;4.97;;;;;;;-4.49;50.45;97427.03;5068642;28;20039;-68
2023/02/07 06:23:27;;;;;;;5.75;4.13;;;;;;;-3.95;61.44;97437.72;5067657;28;20369;-68
2023/02/07 06:25:53;;;;;;;7.28;5.07;;;;;;;-3.61;52.28;97438.53;5073622;28;20268;-68
2023/02/07 06:28:18;;;;;;;3.90;2.80;;;;;;;-3.22;63.05;97440.88;5065839;28;20528;-69
2023/02/07 06:30:44;;;;;;;5.10;3.72;;;;;;;-3.29;62.58;97445.41;5067756;28;20033;-69
2023/02/07 06:33:10;;;;;;;6.15;4.60;;;;;;;-3.30;61.70;97440.22;5074578;28;20039;-69
2023/02/07 06:35:35;;;;;;;5.18;3.00;;;;;;;-2.94;61.85;97441.75;5073805;28;20023;-68
2023/02/07 06:38:00;;;;;;;5.28;3.20;;;;;;;-2.81;62.88;97443.09;5070358;28;20033;-68
2023/02/07 06:40:26;;;;;;;5.25;3.17;;;;;;;-2.67;62.79;97440.03;5069244;28;20508;-68
2023/02/07 06:42:51;;;;;;;9.68;6.70;;;;;;;-2.80;50.70;97444.78;5069742;28;20062;-68
2023/02/07 06:45:16;;;;;;;4.07;2.90;;;;;;;-2.51;62.34;97458.63;5067316;28;20055;-68
2023/02/07 06:47:42;;;;;;;5.93;3.28;;;;;;;-2.36;62.23;97466.84;5074018;28;20224;-68
2023/02/07 06:50:07;;;;;;;6.68;4.20;;;;;;;-2.29;62.75;97470.97;5069472;28;20216;-68
2023/02/07 06:52:33;;;;;;;5.55;3.63;;;;;;;-2.13;62.56;97475.69;5060167;28;20036;-68
2023/02/07 06:54:58;;;;;;;5.40;3.40;;;;;;;-1.99;61.81;97478.66;5062267;28;20585;-69
2023/02/07 06:57:24;;;;;;;6.10;4.10;;;;;;;-1.90;61.80;97481.88;5065481;28;20047;-69
2023/02/07 06:59:49;;;;;;;5.55;3.53;;;;;;;-1.77;61.21;97485.75;5065690;28;20324;-69
2023/02/07 07:02:16;;;;;;;5.53;3.60;;;;;;;-1.64;61.85;97482.69;5068465;28;20035;-69
2023/02/07 07:04:41;;;;;;;6.35;4.25;;;;;;;-1.62;61.30;97478.25;5070860;28;20528;-69
2023/02/07 07:07:06;;;;;;;5.40;3.67;;;;;;;-1.53;61.65;97487.53;5066594;28;20032;-69
2023/02/07 07:09:32;;;;;;;5.55;3.72;;;;;;;-1.49;60.00;97489.97;5066461;28;20197;-69
2023/02/07 07:11:57;;;;;;;5.50;4.03;;;;;;;-1.47;60.81;97497.75;5068323;28;20023;-69
2023/02/07 07:14:23;;;;;;;5.65;3.72;;;;;;;-1.35;60.06;97504.31;5072271;28;20054;-69
2023/02/07 07:16:48;;;;;;;7.90;4.38;;;;;;;-1.39;60.34;97502.72;5066101;28;20036;-68
2023/02/07 07:19:14;;;;;;;5.38;4.32;;;;;;;-1.56;58.31;97498.94;5062996;28;20037;-68
2023/02/07 07:21:39;;;;;;;7.15;5.32;;;;;;;-1.79;58.43;97499.75;5064294;28;20413;-69
2023/02/07 07:24:05;;;;;;;6.60;5.15;;;;;;;-1.75;57.43;97507.44;5065942;28;20050;-68
2023/02/07 07:26:30;;;;;;;7.55;4.85;;;;;;;-1.81;58.84;97496.34;5072217;28;20025;-68
2023/02/07 07:28:59;;;;;;;6.68;5.00;;;;;;;-1.74;59.09;97503.06;5070045;28;20489;-68
2023/02/07 07:31:24;;;;;;;9.55;7.13;;;;;;;-1.93;59.41;97506.28;5068744;28;20028;-68
2023/02/07 07:33:50;;;;;;;9.18;6.18;;;;;;;-2.11;57.72;97499.94;5067424;28;20074;-68
2023/02/07 07:36:15;;;;;;;9.40;6.38;;;;;;;-2.31;57.80;97506.69;5069862;28;20051;-68
2023/02/07 07:38:40;;;;;;;9.73;5.68;;;;;;;-2.05;60.64;97512.81;5068808;28;20028;-68
2023/02/07 07:41:06;;;;;;;8.50;5.72;;;;;;;-2.14;61.12;97516.56;5066208;28;20028;-69
2023/02/07 07:43:31;;;;;;;9.02;5.75;;;;;;;-2.02;60.13;97524.91;5069049;28;20036;-68
2023/02/07 07:45:58;;;;;;;9.63;6.07;;;;;;;-2.02;59.42;97520.53;5054173;28;20032;-68
2023/02/07 07:48:24;;;;;;;9.23;6.40;;;;;;;-2.03;60.46;97515.38;5068378;28;20105;-68
2023/02/07 07:50:49;;;;;;;10.15;6.50;;;;;;;-1.96;60.36;97516.00;5067579;28;20032;-68
2023/02/07 07:53:16;;;;;;;9.95;6.53;;;;;;;-1.98;60.55;97514.31;5063580;28;20044;-68
2023/02/07 07:55:41;;;;;;;10.18;6.75;;;;;;;-1.96;60.56;97523.84;5065996;28;20039;-68
2023/02/07 07:58:07;;;;;;;11.85;7.53;;;;;;;-1.95;61.51;97515.97;5069843;28;20024;-68
2023/02/07 08:00:32;;;;;;;14.00;8.85;;;;;;;-1.80;60.83;97517.19;5065772;28;20032;-68
2023/02/07 08:02:57;;;;;;;13.82;8.75;;;;;;;-1.80;59.88;97518.97;5066426;28;20496;-69
2023/02/07 08:05:23;;;;;;;16.63;11.07;;;;;;;-1.73;61.48;97521.28;5064541;28;20040;-68
2023/02/07 08:07:49;;;;;;;16.20;10.95;;;;;;;-1.81;61.17;97518.09;5067752;28;20031;-68
2023/02/07 08:10:15;;;;;;;18.58;12.82;;;;;;;-1.58;59.94;97526.88;5067198;28;20051;-68
2023/02/07 08:12:40;;;;;;;17.48;11.85;;;;;;;-1.61;59.19;97522.63;5064221;28;20052;-68
2023/02/07 08:15:08;;;;;;;20.30;14.20;;;;;;;-1.69;58.55;97527.28;5070178;28;20373;-69
2023/02/07 08:17:34;;;;;;;18.92;12.07;;;;;;;-1.69;57.77;97526.41;5068958;28;20391;-69
2023/02/07 08:19:59;;;;;;;22.80;15.02;;;;;;;-1.50;59.70;97521.38;5067191;28;20587;-69
2023/02/07 08:22:24;;;;;;;22.05;14.52;;;;;;;-1.55;58.89;97524.16;5068363;28;20040;-69
2023/02/07 08:24:50;;;;;;;22.95;14.98;;;;;;;-1.62;59.09;97520.06;5066901;28;20507;-68
2023/02/07 08:27:15;;;;;;;11.77;7.18;;;;;;;-1.40;51.68;97520.13;5067612;28;20036;-68
2023/02/07 08:29:41;;;;;;;14.65;9.70;;;;;;;-1.15;49.58;97521.00;5068802;28;20067;-68
2023/02/07 08:32:06;;;;;;;13.25;8.90;;;;;;;-1.11;48.33;97512.97;5064515;28;20493;-68
2023/02/07 08:34:36;;;;;;;15.45;9.48;;;;;;;-1.09;49.86;97513.78;5067201;28;20028;-68
2023/02/07 08:37:05;;;;;;;23.33;13.82;;;;;;;-1.09;50.46;97513.78;5067935;28;20120;-68
2023/02/07 08:39:31;;;;;;;22.88;14.00;;;;;;;-1.06;51.22;97514.59;5070780;28;20389;-69
2023/02/07 08:41:56;;;;;;;18.20;11.82;;;;;;;-1.08;47.56;97514.63;5071385;28;20036;-68
2023/02/07 08:44:21;;;;;;;20.35;13.45;;;;;;;-0.96;50.24;97519.44;5071034;28;20570;-68
2023/02/07 08:46:47;;;;;;;14.75;10.20;;;;;;;-0.77;50.78;97518.72;5069289;28;20037;-68
2023/02/07 08:49:12;;;;;;;18.70;12.75;;;;;;;-0.79;49.45;97517.91;5066641;28;20040;-68
2023/02/07 08:51:38;;;;;;;18.80;12.68;;;;;;;-0.67;52.34;97520.97;5065314;28;20032;-68
2023/02/07 08:54:03;;;;;;;13.80;8.90;;;;;;;-0.78;47.11;97521.41;5068270;28;20044;-68
2023/02/07 08:56:28;;;;;;;26.77;17.30;;;;;;;-0.47;50.70;97523.63;5065364;28;20037;-68
2023/02/07 08:58:54;;;;;;;24.95;17.27;;;;;;;-0.54;49.70;97514.31;5073553;28;20661;-68
2023/02/07 09:01:19;;;;;;;18.10;11.63;;;;;;;-0.18;46.40;97516.38;5071517;28;20090;-69
2023/02/07 09:03:45;;;;;;;24.67;17.15;;;;;;;-0.06;49.47;97511.56;5069983;28;20032;-69
2023/02/07 09:06:10;;;;;;;34.92;24.42;;;;;;;-0.19;53.69;97506.81;5066456;28;20047;-68
2023/02/07 09:08:36;;;;;;;28.77;19.98;;;;;;;0.07;51.30;97506.63;5070509;28;20177;-68
2023/02/07 09:11:04;;;;;;;9.35;6.45;;;;;;;0.41;43.94;97499.94;5065231;28;20041;-68
2023/02/07 09:13:29;;;;;;;14.00;9.88;;;;;;;0.37;43.01;97500.16;5063046;28;20040;-69
2023/02/07 09:15:55;;;;;;;9.70;6.43;;;;;;;0.65;43.40;97506.78;5066744;28;20043;-69
2023/02/07 09:18:22;;;;;;;32.63;22.08;;;;;;;0.53;48.07;97505.56;5071124;28;20095;-67
2023/02/07 09:20:47;;;;;;;10.20;6.65;;;;;;;0.46;43.44;97497.13;5065759;28;20504;-68
2023/02/07 09:23:18;;;;;;;36.53;23.15;;;;;;;0.42;46.87;97500.78;5065712;28;20020;-68
2023/02/07 09:25:48;;;;;;;12.15;7.47;;;;;;;0.42;41.71;97499.03;5066911;28;20040;-68
2023/02/07 09:28:14;;;;;;;21.67;14.90;;;;;;;0.46;39.75;97499.75;5064672;28;20045;-68
2023/02/07 09:30:40;;;;;;;10.30;7.63;;;;;;;0.46;38.07;97497.13;5069580;28;20059;-69
2023/02/07 09:33:06;;;;;;;22.38;14.63;;;;;;;0.34;37.82;97495.88;5064540;28;20080;-69
2023/02/07 09:35:45;;;;;;;11.45;6.90;;;;;;;0.50;38.77;97493.44;5068470;28;20117;-69
2023/02/07 09:38:18;;;;;;;33.30;22.50;;;;;;;0.35;47.71;97494.97;5067062;28;20180;-68
2023/02/07 09:40:44;;;;;;;20.40;13.88;;;;;;;0.38;42.92;97501.84;5069424;28;20119;-68
2023/02/07 09:43:31;;;;;;;30.63;20.45;;;;;;;0.57;41.05;97500.13;5066923;28;20563;-68
2023/02/07 09:45:59;;;;;;;15.65;11.38;;;;;;;0.59;37.77;97498.25;5068634;28;20538;-68
2023/02/07 09:48:43;;;;;;;42.78;26.55;;;;;;;0.65;41.49;97499.75;5062807;28;20459;-69
2023/02/07 09:51:09;;;;;;;32.58;22.02;;;;;;;0.76;38.36;97496.66;5072053;28;20072;-74
2023/02/07 09:53:41;;;;;;;13.02;8.68;;;;;;;0.74;35.86;97495.88;5051646;28;20118;-74
2023/02/07 09:56:07;;;;;;;12.45;7.82;;;;;;;0.65;34.94;97497.13;5058091;28;20177;-74
2023/02/07 09:59:07;;;;;;;16.35;10.57;;;;;;;0.59;42.94;97502.66;5054507;28;20066;-73
2023/02/07 10:01:35;;;;;;;46.65;28.67;;;;;;;0.29;43.74;97501.34;5074443;28;20089;-74
2023/02/07 10:04:21;;;;;;;23.83;16.75;;;;;;;0.72;39.65;97508.22;5061684;28;20073;-74
2023/02/07 10:06:55;;;;;;;18.55;11.70;;;;;;;0.84;43.49;97510.28;5064367;28;20067;-74
2023/02/07 10:09:35;;;;;;;10.57;6.20;;;;;;;1.07;35.42;97512.75;5056523;28;20089;-75
2023/02/07 10:12:23;;;;;;;24.67;16.33;;;;;;;0.79;37.23;97520.09;5051878;28;20159;-74
2023/02/07 10:14:58;;;;;;;17.90;10.77;;;;;;;1.24;35.45;97510.22;5068165;28;20055;-75
2023/02/07 10:17:24;;;;;;;20.00;12.10;;;;;;;1.35;40.58;97508.81;5072997;28;20514;-75
2023/02/07 10:20:26;;;;;;;32.33;20.93;;;;;;;1.27;38.80;97518.84;5069331;28;20057;-75
2023/02/07 10:23:07;;;;;;;19.02;12.73;;;;;;;1.52;38.69;97518.53;5070376;28;20325;-66
2023/02/07 10:25:41;;;;;;;47.55;31.77;;;;;;;1.41;44.95;97526.94;5068323;28;20162;-66
2023/02/07 10:28:12;;;;;;;12.18;6.70;;;;;;;1.90;35.07;97516.78;5066909;28;20451;-66
2023/02/07 10:31:05;;;;;;;18.38;13.23;;;;;;;2.07;39.58;97518.53;5064275;28;20060;-66
2023/02/07 10:33:32;;;;;;;43.17;30.10;;;;;;;2.03;40.41;97512.59;5059185;28;20079;-71
2023/02/07 10:36:01;;;;;;;43.80;30.08;;;;;;;1.96;45.64;97511.19;5066934;28;20695;-73
2023/02/07 10:38:39;;;;;;;15.88;11.40;;;;;;;1.86;40.28;97510.78;5052725;28;20132;-69
2023/02/07 10:41:18;;;;;;;46.55;30.17;;;;;;;2.03;40.57;97515.22;5068472;28;20069;-68
2023/02/07 10:43:44;;;;;;;22.23;15.95;;;;;;;2.32;37.57;97518.16;5059112;28;20347;-66
2023/02/07 10:46:10;;;;;;;27.75;18.63;;;;;;;2.50;43.74;97512.84;5072289;28;20047;-68
2023/02/07 10:48:36;;;;;;;15.43;9.68;;;;;;;2.84;39.15;97508.44;5078457;28;20101;-68
2023/02/07 10:51:02;;;;;;;43.05;28.70;;;;;;;2.57;43.75;97516.00;5063419;28;20049;-69
2023/02/07 10:54:00;;;;;;;19.75;12.98;;;;;;;2.86;33.90;97516.25;5065527;28;20161;-70
2023/02/07 10:56:26;;;;;;;24.63;16.88;;;;;;;3.10;36.22;97511.41;5070927;28;20384;-70
2023/02/07 10:58:53;;;;;;;11.50;7.97;;;;;;;3.27;34.59;97505.22;5069417;28;20043;-71
2023/02/07 11:01:22;;;;;;;24.60;15.90;;;;;;;3.08;37.83;97512.44;5065838;28;20068;-71
2023/02/07 11:03:48;;;;;;;33.80;23.40;;;;;;;3.40;38.04;97510.66;5059530;28;20057;-71
2023/02/07 11:06:43;;;;;;;33.95;22.35;;;;;;;3.20;38.88;97509.13;5054521;28;20145;-69
2023/02/07 11:09:22;;;;;;;51.97;37.58;;;;;;;3.54;45.39;97502.00;5054770;28;20072;-69
2023/02/07 11:11:51;;;;;;;48.45;32.88;;;;;;;3.57;42.30;97505.44;5062559;28;20095;-69
2023/02/07 11:14:19;;;;;;;;;;;;;;;3.73;35.52;97493.06;5067625;28;20047;-68
2023/02/07 11:16:45;;;;;;;35.85;23.70;;;;;;;3.78;42.52;97498.91;5064367;28;19950;-70
2023/02/07 11:19:16;;;;;;;20.88;13.30;;;;;;;4.01;38.96;97490.63;5046621;28;20050;-68
2023/02/07 11:21:42;;;;;;;39.53;28.92;;;;;;;4.11;37.29;97494.41;5061503;28;20142;-69
2023/02/07 11:24:15;;;;;;;33.03;22.20;;;;;;;4.37;30.71;97488.50;5050247;28;20067;-69
2023/02/07 11:27:01;;;;;;;19.83;11.18;;;;;;;4.60;29.51;97495.03;5071339;28;20036;-69
2023/02/07 11:29:27;;;;;;;11.80;6.75;;;;;;;4.79;27.60;97491.22;5052817;28;20146;-68
2023/02/07 11:31:53;;;;;;;44.40;28.05;;;;;;;4.25;30.55;97493.56;5069161;28;20135;-69
2023/02/07 11:34:30;;;;;;;9.80;6.68;;;;;;;4.91;26.02;97492.28;5072035;28;20057;-69
2023/02/07 11:37:27;;;;;;;6.63;4.72;;;;;;;5.05;26.31;97486.13;5072086;28;20462;-69
2023/02/07 11:40:13;;;;;;;18.02;12.88;;;;;;;4.98;27.31;97488.31;5076642;28;20075;-69
2023/02/07 11:42:38;;;;;;;46.20;30.48;;;;;;;4.81;31.11;97498.13;5068878;28;20139;-69